Forside
METAR-TAF:

METAR-TAF

Lufthavne :

Okayama, Japan

Breddekreds: 34-45N, længdekreds: 133-51E, højde: 241 m

Aktuelle vejr

Denne rapport blev lavet for 48 minutter siden, kl. 08:00 UTC
Vind 9 kt fra nord med vindstød på up til 19 kt, varierende mellem vestnordvest og nordøst
Temperatur 5°C
Fugtighed 56%
Tryk 1024 hPa
Sigt 10 km eller mere
Nogle få skyer i en højde af 2500 ft
Brudte skyer i en højde af 6000 ft

METAR: RJOB 270800Z 36009G19KT 300V040 9999 FEW025 BKN060 05/M03 Q1024

Tid: 17:48 (08:48 UTC)

Vejrudsigter

Denne rapport blev lavet for 3 timer og 38 minutter siden, kl. 05:10 UTC
Foreløbig gælder fra 27 på 06 UTC til 28 på 12 UTC
Vind 12 kt fra nordnordvest
Sigt 10 km eller mere
Nogle få skyer i en højde af 2500 ft
Brudte skyer i en højde af 4500 ft
ændring
fra 27 på 21 UTC til 28 på 00 UTC
Vind 4 kt fra østnordøst

TAF: RJOB 270510Z 2706/2812 34012KT 9999 FEW025 BKN045 BECMG 2721/2800 06004KT

Vejrobservationer og prognoser fra mere end 4000 lufthavne (METAR og TAF).

De gule og røde prikker repræsenterer de meteorologiske stationer.

Flyt musen over at se navnet på stationen.

Så klik over at se vejr observationer og prognoser.

At skifte det kort: Klik på de grønne knapper med et sort kors for at zoome ind; på den grønne knap med en bindestreg for at zoome ud; eller på de grønne pile for tilstødende kort.


METAR-TAF: